Time;durP1;ratioP1;P1;durP2;ratioP2;P2;SDS_P1;SDS_P2;PMS_P1;PMS_P2;Temp;Humidity;BMP_temperature;BMP_pressure;BME280_temperature;BME280_humidity;BME280_pressure;Samples;Min_cycle;Max_cycle;Signal;HPM_P1;HPM_P2
2023/03/27 00:02:19;;;;;;;;;;;;;;;18.55;59.51;99825.42;2318081;76;50623;-74
2023/03/27 00:05:20;;;;;;;;;;;;;;;18.58;59.39;99831.73;2317644;76;51208;-74
2023/03/27 00:08:23;;;;;;;;;;;;;;;18.66;59.23;99844.94;2267133;77;51601;-75
2023/03/27 00:11:25;;;;;;;;;;;;;;;18.67;59.09;99842.55;2308433;75;50679;-74
2023/03/27 00:14:27;;;;;;;;;;;;;;;18.67;59.11;99842.03;2313815;76;50275;-75
2023/03/27 00:17:29;;;;;;;;;;;;;;;18.63;57.74;99847.51;2317766;76;52706;-74
2023/03/27 00:20:36;;;;;;;;;;;;;;;18.61;57.18;99852.76;2317994;76;51525;-75
2023/03/27 00:23:35;;;;;;;;;;;;;;;18.58;57.42;99859.34;2346827;74;22967;-75
2023/03/27 00:26:39;;;;;;;;;;;;;;;18.57;57.68;99856.86;2347490;76;50692;-74
2023/03/27 00:29:40;;;;;;;;;;;;;;;18.54;57.82;99868.80;2347720;74;22699;-74
2023/03/27 00:32:42;;;;;;;;;;;;;;;18.49;58.37;99873.42;2317839;76;50188;-75
2023/03/27 00:35:47;;;;;;;;;;;;;;;18.50;58.42;99874.27;2347247;75;51405;-75
2023/03/27 00:38:51;;;;;;;;;;;;;;;18.55;58.44;99885.70;2347531;76;51522;-75
2023/03/27 00:41:54;;;;;;;;;;;;;;;18.64;58.25;99881.82;2304305;76;23087;-74
2023/03/27 00:44:55;;;;;;;;;;;;;;;18.71;58.12;99896.89;2312520;76;22392;-75
2023/03/27 00:47:58;;;;;;;;;;;;;;;18.74;58.05;99896.18;2280816;77;50625;-74
2023/03/27 00:51:00;;;;;;;;;;;;;;;18.76;58.07;99913.73;2310698;76;50843;-74
2023/03/27 00:54:01;;;;;;;;;;;;;;;18.75;58.05;99908.54;2280635;77;52457;-74
2023/03/27 00:57:04;;;;;;;;;;;;;;;18.73;58.09;99918.14;2312110;77;51569;-75
2023/03/27 01:00:12;;;;;;;;;;;;;;;18.71;58.20;99902.77;2312135;77;51498;-75
2023/03/27 01:03:09;;;;;;;;;;;;;;;18.68;58.32;99912.04;2311530;77;22341;-74
2023/03/27 01:06:12;;;;;;;;;;;;;;;18.64;58.38;99909.44;2255997;77;51712;-74
2023/03/27 01:09:14;;;;;;;;;;;;;;;18.60;58.50;99905.52;2312016;77;51519;-75
2023/03/27 01:12:30;;;;;;;;;;;;;;;18.60;58.62;99920.75;2292865;76;51466;-74
2023/03/27 01:15:36;;;;;;;;;;;;;;;18.66;58.54;99928.00;2310609;77;51683;-74
2023/03/27 01:18:39;;;;;;;;;;;;;;;18.70;58.34;99923.88;2273306;77;51727;-75
2023/03/27 01:21:43;;;;;;;;;;;;;;;18.71;58.30;99924.20;2311903;77;50082;-76
2023/03/27 01:24:52;;;;;;;;;;;;;;;18.71;58.28;99921.53;2311789;75;50232;-75
2023/03/27 01:28:07;;;;;;;;;;;;;;;18.69;58.31;99931.09;2311917;77;51447;-76
2023/03/27 01:31:08;;;;;;;;;;;;;;;18.67;58.35;99949.74;2310213;77;22406;-76
2023/03/27 01:34:21;;;;;;;;;;;;;;;18.64;58.34;99954.98;2311326;76;50378;-76
2023/03/27 01:37:40;;;;;;;;;;;;;;;18.61;58.37;99951.38;2311944;77;51489;-76
2023/03/27 01:40:49;;;;;;;;;;;;;;;18.57;58.22;99955.47;2312093;77;50297;-76
2023/03/27 01:43:59;;;;;;;;;;;;;;;18.55;58.42;99963.39;2269846;77;51708;-76
2023/03/27 01:47:08;;;;;;;;;;;;;;;18.58;58.57;99957.66;2312012;77;50410;-76
2023/03/27 01:50:28;;;;;;;;;;;;;;;18.66;58.28;99971.70;2310224;76;51426;-76
2023/03/27 01:53:31;;;;;;;;;;;;;;;18.73;58.11;99975.76;2311835;77;51507;-76
2023/03/27 01:56:36;;;;;;;;;;;;;;;18.75;58.04;99980.41;2271359;77;51656;-76
2023/03/27 01:59:39;;;;;;;;;;;;;;;18.76;57.89;99983.94;2311208;77;52622;-76
2023/03/27 02:02:41;;;;;;;;;;;;;;;18.74;57.90;99981.42;2311972;77;50382;-76
2023/03/27 02:05:44;;;;;;;;;;;;;;;18.73;57.78;99985.14;2311635;77;49919;-75
2023/03/27 02:08:47;;;;;;;;;;;;;;;18.70;57.82;99993.06;2311971;77;49968;-75
2023/03/27 02:12:10;;;;;;;;;;;;;;;18.67;57.83;99990.75;2323554;76;50229;-76
2023/03/27 02:15:13;;;;;;;;;;;;;;;18.63;57.85;99994.06;2311691;77;50285;-75
2023/03/27 02:18:18;;;;;;;;;;;;;;;18.59;57.81;99999.48;2310662;77;50274;-75
2023/03/27 02:21:19;;;;;;;;;;;;;;;18.58;58.07;100000.53;2280536;77;49422;-75
2023/03/27 02:24:21;;;;;;;;;;;;;;;18.65;57.96;100002.70;2311676;77;50304;-75
2023/03/27 02:27:30;;;;;;;;;;;;;;;18.70;57.70;100013.16;2311897;77;50324;-75
2023/03/27 02:30:36;;;;;;;;;;;;;;;18.73;57.63;100018.64;2310923;76;51545;-75
2023/03/27 02:33:41;;;;;;;;;;;;;;;18.73;57.59;100019.98;2280431;77;51071;-75
2023/03/27 02:36:52;;;;;;;;;;;;;;;18.74;57.53;100036.87;2308159;77;50652;-75
2023/03/27 02:39:57;;;;;;;;;;;;;;;18.70;57.54;100033.26;2312365;77;22316;-75
2023/03/27 02:43:10;;;;;;;;;;;;;;;18.68;57.56;100037.16;2323724;76;50181;-75
2023/03/27 02:46:25;;;;;;;;;;;;;;;18.64;57.58;100045.27;2220205;79;50462;-75
2023/03/27 02:49:28;;;;;;;;;;;;;;;18.61;57.52;100059.07;2220035;78;51480;-74
2023/03/27 02:52:33;;;;;;;;;;;;;;;18.57;57.76;100057.80;2220363;80;50249;-74
2023/03/27 02:55:36;;;;;;;;;;;;;;;18.57;57.91;100070.67;2220125;80;51540;-74
2023/03/27 02:58:43;;;;;;;;;;;;;;;18.63;57.81;100072.59;2196276;80;50990;-74
2023/03/27 03:01:45;;;;;;;;;;;;;;;18.71;57.63;100076.96;2220435;80;51464;-75
2023/03/27 03:04:48;;;;;;;;;;;;;;;18.77;57.42;100083.41;2220086;80;50770;-76
2023/03/27 03:07:53;;;;;;;;;;;;;;;18.78;57.35;100084.56;2220788;80;50694;-74
2023/03/27 03:10:53;;;;;;;;;;;;;;;18.78;57.29;100082.37;2236188;78;22469;-74
2023/03/27 03:13:55;;;;;;;;;;;;;;;18.77;57.26;100093.61;2253164;78;51356;-75
2023/03/27 03:16:56;;;;;;;;;;;;;;;18.75;57.27;100092.97;2266497;77;51400;-75
2023/03/27 03:19:58;;;;;;;;;;;;;;;18.72;57.23;100095.50;2266455;78;51576;-75
2023/03/27 03:23:00;;;;;;;;;;;;;;;18.69;57.36;100107.14;2276543;76;49724;-75
2023/03/27 03:26:02;;;;;;;;;;;;;;;18.65;57.42;100108.55;2317947;76;51536;-75
2023/03/27 03:29:03;;;;;;;;;;;;;;;18.61;57.49;100124.20;2318364;76;51546;-74
2023/03/27 03:32:05;;;;;;;;;;;;;;;18.62;57.75;100135.74;2347704;76;51449;-74
2023/03/27 03:35:08;;;;;;;;;;;;;;;18.65;57.64;100130.84;2347457;76;50730;-74
2023/03/27 03:38:10;;;;;;;;;;;;;;;18.71;57.45;100144.78;2318536;76;50815;-74
2023/03/27 03:41:11;;;;;;;;;;;;;;;18.75;57.31;100145.23;2312830;76;51621;-74
2023/03/27 03:44:13;;;;;;;;;;;;;;;18.76;57.27;100146.91;2312033;76;51517;-74
2023/03/27 03:47:15;;;;;;;;;;;;;;;18.74;57.26;100150.26;2256103;77;51361;-75
2023/03/27 03:50:16;;;;;;;;;;;;;;;18.72;57.30;100156.33;2312322;77;51487;-75
2023/03/27 03:53:18;;;;;;;;;;;;;;;18.70;57.32;100162.38;2312280;77;50174;-75
2023/03/27 03:56:20;;;;;;;;;;;;;;;18.66;57.44;100163.30;2305599;77;51607;-75
2023/03/27 03:59:22;;;;;;;;;;;;;;;18.63;57.40;100160.19;2275991;78;51393;-74
2023/03/27 04:02:30;;;;;;;;;;;;;;;18.58;57.55;100164.79;2246144;78;50445;-75
2023/03/27 04:05:31;;;;;;;;;;;;;;;18.60;57.64;100169.94;2275856;77;50764;-74
2023/03/27 04:08:33;;;;;;;;;;;;;;;18.64;57.67;100173.38;2289323;77;51429;-74
2023/03/27 04:11:35;;;;;;;;;;;;;;;18.73;57.48;100176.76;2283342;77;51782;-75
2023/03/27 04:14:37;;;;;;;;;;;;;;;18.76;57.30;100177.73;2312186;77;51450;-74
2023/03/27 04:17:38;;;;;;;;;;;;;;;18.76;57.17;100184.44;2312718;77;50340;-75
2023/03/27 04:20:40;;;;;;;;;;;;;;;18.76;57.13;100185.77;2315407;77;50660;-75
2023/03/27 04:23:42;;;;;;;;;;;;;;;18.74;57.24;100190.46;2250693;77;51670;-75
2023/03/27 04:26:43;;;;;;;;;;;;;;;18.71;57.21;100194.36;2245519;78;50101;-75
2023/03/27 04:29:46;;;;;;;;;;;;;;;18.69;57.35;100192.90;2245587;78;49875;-75
2023/03/27 04:32:49;;;;;;;;;;;;;;;18.66;57.48;100198.66;2275706;77;51529;-74
2023/03/27 04:35:51;;;;;;;;;;;;;;;18.62;57.54;100196.03;2244949;78;49741;-75
2023/03/27 04:38:53;;;;;;;;;;;;;;;18.59;57.74;100203.13;2245834;78;51614;-75
2023/03/27 04:41:57;;;;;;;;;;;;;;;18.62;57.83;100210.25;2314165;76;51388;-73
2023/03/27 04:44:58;;;;;;;;;;;;;;;18.69;57.70;100221.03;2313148;76;23066;-73
2023/03/27 04:47:59;;;;;;;;;;;;;;;18.74;56.99;100226.64;2257036;77;51186;-72
2023/03/27 04:51:02;;;;;;;;;;;;;;;18.75;56.22;100228.32;2282040;76;50074;-73
2023/03/27 04:54:03;;;;;;;;;;;;;;;18.76;55.86;100234.53;2312589;77;51515;-73
2023/03/27 04:57:06;;;;;;;;;;;;;;;18.74;55.61;100241.38;2282220;77;51474;-73
2023/03/27 05:00:15;;;;;;;;;;;;;;;18.71;55.45;100240.44;2281472;77;49555;-72
2023/03/27 05:03:12;;;;;;;;;;;;;;;18.67;55.36;100251.22;2311796;76;22454;-73
2023/03/27 05:06:14;;;;;;;;;;;;;;;18.63;55.35;100255.32;2271581;77;50649;-72
2023/03/27 05:09:15;;;;;;;;;;;;;;;18.61;55.55;100264.06;2276180;78;52521;-74
2023/03/27 05:12:17;;;;;;;;;;;;;;;18.58;55.39;100271.14;2294232;76;51044;-75
2023/03/27 05:15:19;;;;;;;;;;;;;;;18.58;55.34;100270.63;2281454;77;51598;-75
2023/03/27 05:18:20;;;;;;;;;;;;;;;18.63;55.18;100277.58;2313154;77;50668;-75
2023/03/27 05:21:22;;;;;;;;;;;;;;;18.70;54.93;100282.98;2313621;77;51651;-75
2023/03/27 05:24:23;;;;;;;;;;;;;;;18.78;54.65;100286.92;2282796;77;51426;-76
2023/03/27 05:27:25;;;;;;;;;;;;;;;18.81;54.51;100285.19;2282629;77;51431;-75
2023/03/27 05:30:27;;;;;;;;;;;;;;;18.82;54.43;100293.54;2282726;77;50636;-74
2023/03/27 05:33:29;;;;;;;;;;;;;;;18.81;54.38;100294.58;2283511;77;51515;-74
2023/03/27 05:36:30;;;;;;;;;;;;;;;18.84;54.36;100294.70;2257115;77;52227;-74
2023/03/27 05:39:32;;;;;;;;;;;;;;;18.80;54.41;100300.12;2313179;77;51501;-73
2023/03/27 05:42:33;;;;;;;;;;;;;;;18.76;54.50;100306.38;2325086;76;51435;-74
2023/03/27 05:45:35;;;;;;;;;;;;;;;18.72;54.60;100313.93;2281800;77;50653;-74
2023/03/27 05:48:37;;;;;;;;;;;;;;;18.69;54.70;100322.88;2281951;77;51740;-74
2023/03/27 05:51:39;;;;;;;;;;;;;;;18.64;54.83;100326.64;2282087;77;50474;-74
2023/03/27 05:54:40;;;;;;;;;;;;;;;18.62;54.90;100324.66;2312801;77;51482;-74
2023/03/27 05:57:42;;;;;;;;;;;;;;;18.61;54.97;100339.91;2313124;77;50429;-73
2023/03/27 06:00:44;;;;;;;;;;;;;;;18.66;54.98;100343.36;2257194;77;52347;-73
2023/03/27 06:03:48;;;;;;;;;;;;;;;18.74;54.91;100341.89;2312526;77;50607;-73
2023/03/27 06:06:48;;;;;;;;;;;;;;;18.85;54.71;100352.64;2283141;77;22418;-75
2023/03/27 06:09:50;;;;;;;;;;;;;;;18.96;54.65;100351.29;2312899;77;51485;-74
2023/03/27 06:13:05;;;;;;;;;;;;;;;19.04;54.66;100357.36;2294539;77;52469;-74
2023/03/27 06:16:07;;;;;;;;;;;;;;;19.09;54.49;100364.32;2282188;77;51700;-74
2023/03/27 06:19:09;;;;;;;;;;;;;;;19.14;54.44;100374.47;2279275;77;50405;-74
2023/03/27 06:22:11;;;;;;;;;;;;;;;19.18;54.62;100379.75;2245901;78;50402;-73
2023/03/27 06:25:13;;;;;;;;;;;;;;;19.27;54.83;100379.95;2246392;78;52356;-72
2023/03/27 06:28:15;;;;;;;;;;;;;;;19.33;54.61;100385.03;2277152;77;50437;-72
2023/03/27 06:31:18;;;;;;;;;;;;;;;19.33;54.54;100385.86;2277155;78;50599;-71
2023/03/27 06:34:19;;;;;;;;;;;;;;;19.29;54.57;100384.61;2258859;75;21684;-71
2023/03/27 06:37:23;;;;;;;;;;;;;;;19.31;54.67;100389.24;2282172;77;50671;-71
2023/03/27 06:40:26;;;;;;;;;;;;;;;19.32;54.47;100397.63;2313788;75;22050;-71
2023/03/27 06:43:28;;;;;;;;;;;;;;;19.32;54.34;100398.97;2336517;75;50649;-71
2023/03/27 06:46:29;;;;;;;;;;;;;;;19.31;54.29;100395.95;2345297;76;50617;-71
2023/03/27 06:49:31;;;;;;;;;;;;;;;19.33;54.20;100410.52;2318668;76;52345;-71
2023/03/27 06:52:32;;;;;;;;;;;;;;;19.33;54.13;100405.16;2348292;75;51343;-71
2023/03/27 06:55:34;;;;;;;;;;;;;;;19.33;54.05;100422.59;2348119;74;51349;-71
2023/03/27 06:58:36;;;;;;;;;;;;;;;19.25;53.92;100422.22;2348494;75;51529;-71
2023/03/27 07:01:37;;;;;;;;;;;;;;;19.14;54.06;100434.81;2318920;76;52647;-73
2023/03/27 07:04:39;;;;;;;;;;;;;;;19.05;54.22;100437.30;2348060;74;50621;-73
2023/03/27 07:07:41;;;;;;;;;;;;;;;19.02;54.58;100437.17;2322123;75;50757;-73
2023/03/27 07:10:43;;;;;;;;;;;;;;;18.92;55.06;100437.99;2344181;75;50636;-73
2023/03/27 07:13:45;;;;;;;;;;;;;;;18.85;55.40;100435.74;2293508;77;51685;-73
2023/03/27 07:16:46;;;;;;;;;;;;;;;18.93;55.26;100437.81;2280759;77;50375;-73
2023/03/27 07:19:48;;;;;;;;;;;;;;;18.96;55.49;100443.79;2313176;75;50272;-73
2023/03/27 07:22:50;;;;;;;;;;;;;;;18.97;55.47;100443.61;2337172;76;50377;-73
2023/03/27 07:25:51;;;;;;;;;;;;;;;18.97;55.40;100446.30;2328646;75;50411;-73
2023/03/27 07:28:53;;;;;;;;;;;;;;;18.95;55.31;100439.46;2323588;74;49958;-74
2023/03/27 07:31:55;;;;;;;;;;;;;;;18.92;55.39;100452.73;2314307;75;51531;-74
2023/03/27 07:34:57;;;;;;;;;;;;;;;18.92;55.17;100452.22;2285431;77;51544;-74
2023/03/27 07:37:58;;;;;;;;;;;;;;;18.97;55.21;100453.52;2256776;77;53249;-73
2023/03/27 07:41:05;;;;;;;;;;;;;;;18.97;55.00;100457.02;2281872;77;51577;-73
2023/03/27 07:44:06;;;;;;;;;;;;;;;19.03;54.80;100453.56;2337690;75;22528;-75
2023/03/27 07:47:08;;;;;;;;;;;;;;;19.01;54.85;100452.95;2348626;74;50147;-74
2023/03/27 07:50:10;;;;;;;;;;;;;;;19.00;54.59;100455.80;2318959;76;50989;-74
2023/03/27 07:53:12;;;;;;;;;;;;;;;18.93;54.50;100456.58;2348508;76;50001;-74
2023/03/27 07:56:14;;;;;;;;;;;;;;;18.92;54.51;100458.92;2319825;76;51509;-74
2023/03/27 07:59:15;;;;;;;;;;;;;;;18.86;54.65;100463.71;2349830;76;51547;-74
2023/03/27 08:02:17;;;;;;;;;;;;;;;18.80;54.72;100461.77;2318316;76;51667;-73
2023/03/27 08:05:19;;;;;;;;;;;;;;;18.78;54.71;100461.64;2318283;76;50378;-73
2023/03/27 08:08:20;;;;;;;;;;;;;;;18.78;54.79;100465.66;2318570;76;50218;-73
2023/03/27 08:11:22;;;;;;;;;;;;;;;18.76;54.87;100463.19;2345915;75;50293;-74
2023/03/27 08:14:25;;;;;;;;;;;;;;;18.75;54.90;100463.33;2293768;76;51026;-74
2023/03/27 08:17:26;;;;;;;;;;;;;;;18.81;54.80;100458.09;2281903;77;51544;-74
2023/03/27 08:20:29;;;;;;;;;;;;;;;18.87;54.64;100464.02;2326307;75;51504;-74
2023/03/27 08:23:31;;;;;;;;;;;;;;;18.92;54.50;100462.94;2345256;75;50417;-73
2023/03/27 08:26:33;;;;;;;;;;;;;;;18.98;54.42;100465.88;2322500;75;51515;-73
2023/03/27 08:29:34;;;;;;;;;;;;;;;18.98;54.46;100476.61;2299651;75;52310;-74
2023/03/27 08:32:36;;;;;;;;;;;;;;;18.98;54.48;100472.08;2283478;77;50635;-73
2023/03/27 08:35:37;;;;;;;;;;;;;;;18.99;54.47;100479.63;2283965;75;50690;-73
2023/03/27 08:38:40;;;;;;;;;;;;;;;18.97;54.46;100480.33;2312244;75;50217;-74
2023/03/27 08:41:43;;;;;;;;;;;;;;;18.95;54.51;100487.20;2289456;75;51713;-73
2023/03/27 08:44:45;;;;;;;;;;;;;;;18.91;54.46;100493.47;2336987;75;50685;-73
2023/03/27 08:47:48;;;;;;;;;;;;;;;18.88;54.45;100496.53;2321251;75;50287;-73
2023/03/27 08:50:51;;;;;;;;;;;;;;;18.84;54.55;100492.55;2323905;75;50503;-74
2023/03/27 08:54:10;;;;;;;;;;;;;;;18.80;54.82;100500.64;2288982;77;52463;-73
2023/03/27 08:57:17;;;;;;;;;;;;;;;18.79;54.98;100507.55;2318810;75;50156;-73
2023/03/27 09:00:20;;;;;;;;;;;;;;;18.79;55.10;100512.91;2331695;75;51446;-73
2023/03/27 09:03:26;;;;;;;;;;;;;;;18.74;55.79;100509.41;2349382;75;51864;-73
2023/03/27 09:06:48;;;;;;;;;;;;;;;18.70;55.97;100518.34;2324238;76;52456;-73
2023/03/27 09:10:00;;;;;;;;;;;;;;;18.65;56.24;100521.23;2323378;75;51485;-73
2023/03/27 09:13:10;;;;;;;;;;;;;;;18.64;56.34;100530.31;2288474;76;51780;-73
2023/03/27 09:16:16;;;;;;;;;;;;;;;18.60;56.51;100526.33;2317730;75;50262;-73
2023/03/27 09:19:25;;;;;;;;;;;;;;;18.57;56.75;100536.91;2302717;75;51748;-73
2023/03/27 09:22:29;;;;;;;;;;;;;;;18.56;56.84;100531.75;2320825;76;50706;-73
2023/03/27 09:25:32;;;;;;;;;;;;;;;18.59;56.71;100528.18;2311113;75;50303;-73
2023/03/27 09:28:52;;;;;;;;;;;;;;;18.65;56.54;100533.30;2322916;75;51411;-73
2023/03/27 09:31:54;;;;;;;;;;;;;;;18.69;56.46;100538.11;2331516;75;22792;-73
2023/03/27 09:34:58;;;;;;;;;;;;;;;18.71;56.48;100533.91;2337602;75;53513;-73
2023/03/27 09:38:02;;;;;;;;;;;;;;;18.71;56.48;100528.55;2310479;75;50294;-73
2023/03/27 09:41:06;;;;;;;;;;;;;;;18.69;56.52;100538.63;2337359;74;22519;-73
2023/03/27 09:44:09;;;;;;;;;;;;;;;18.69;56.56;100529.23;2297284;76;52553;-72
2023/03/27 09:47:13;;;;;;;;;;;;;;;18.68;56.57;100545.84;2319703;74;52824;-73
2023/03/27 09:50:16;;;;;;;;;;;;;;;18.66;56.66;100537.66;2321786;75;50740;-73
2023/03/27 09:53:20;;;;;;;;;;;;;;;18.64;56.72;100547.21;2347066;75;50030;-74
2023/03/27 09:56:21;;;;;;;;;;;;;;;18.63;56.69;100548.25;2293882;76;51240;-73
2023/03/27 09:59:28;;;;;;;;;;;;;;;18.63;56.65;100548.76;2315608;75;50097;-73
2023/03/27 10:02:30;;;;;;;;;;;;;;;18.66;56.50;100548.38;2294399;76;50684;-73
2023/03/27 10:05:32;;;;;;;;;;;;;;;18.68;56.41;100555.73;2313445;75;52426;-73
2023/03/27 10:08:38;;;;;;;;;;;;;;;18.67;56.46;100555.39;2279029;75;51684;-73
2023/03/27 10:11:40;;;;;;;;;;;;;;;18.66;56.44;100554.56;2329575;75;51634;-73
2023/03/27 10:14:46;;;;;;;;;;;;;;;18.63;56.61;100551.44;2313083;74;51495;-73
2023/03/27 10:17:47;;;;;;;;;;;;;;;18.63;56.40;100551.44;2314653;75;50690;-73
2023/03/27 10:20:50;;;;;;;;;;;;;;;18.60;56.38;100559.83;2316410;74;50585;-72
2023/03/27 10:23:53;;;;;;;;;;;;;;;18.57;56.53;100559.69;2285769;76;51480;-72
2023/03/27 10:26:54;;;;;;;;;;;;;;;18.56;56.50;100567.92;2287510;77;50066;-73
2023/03/27 10:29:56;;;;;;;;;;;;;;;18.57;56.95;100559.69;2310367;75;50032;-73
2023/03/27 10:32:58;;;;;;;;;;;;;;;18.68;56.68;100563.77;2258665;77;51191;-73
2023/03/27 10:35:59;;;;;;;;;;;;;;;18.78;56.70;100572.87;2278370;77;50285;-72
2023/03/27 10:39:03;;;;;;;;;;;;;;;18.83;56.25;100574.01;2332052;75;50160;-74
2023/03/27 10:42:08;;;;;;;;;;;;;;;18.87;56.04;100574.45;2354770;75;50344;-72
2023/03/27 10:45:19;;;;;;;;;;;;;;;18.84;56.08;100572.98;2292934;75;51762;-73
2023/03/27 10:48:32;;;;;;;;;;;;;;;18.82;56.05;100579.03;2297896;75;50794;-72
2023/03/27 10:51:51;;;;;;;;;;;;;;;18.79;56.23;100586.11;2355264;74;50265;-72
2023/03/27 10:54:58;;;;;;;;;;;;;;;18.75;56.33;100580.78;2323819;75;51552;-73
2023/03/27 10:58:01;;;;;;;;;;;;;;;18.72;56.35;100591.33;2326424;75;51790;-73
2023/03/27 11:01:07;;;;;;;;;;;;;;;18.69;56.50;100597.59;2323951;75;50773;-73
2023/03/27 11:04:19;;;;;;;;;;;;;;;18.67;56.83;100594.25;2325186;75;50816;-72
2023/03/27 11:07:25;;;;;;;;;;;;;;;18.61;56.70;100598.51;2316761;77;51436;-72
2023/03/27 11:10:38;;;;;;;;;;;;;;;18.66;56.47;100603.32;2285327;77;51851;-72
2023/03/27 11:13:41;;;;;;;;;;;;;;;18.67;56.29;100596.94;2317542;75;51635;-72
2023/03/27 11:16:44;;;;;;;;;;;;;;;18.67;56.27;100602.30;2314658;77;51629;-72
2023/03/27 11:19:48;;;;;;;;;;;;;;;18.64;56.21;100606.17;2308933;75;51463;-73
2023/03/27 11:22:53;;;;;;;;;;;;;;;18.63;56.35;100602.36;2265262;77;51723;-72
2023/03/27 11:25:58;;;;;;;;;;;;;;;18.60;57.18;100607.58;2314093;75;50020;-75
2023/03/27 11:29:10;;;;;;;;;;;;;;;18.60;57.06;100590.16;2341796;74;22397;-74
2023/03/27 11:32:19;;;;;;;;;;;;;;;18.59;57.27;100589.81;2346654;75;50313;-77
2023/03/27 11:35:22;;;;;;;;;;;;;;;18.60;57.35;100590.16;2321757;75;49687;-75
2023/03/27 11:38:28;;;;;;;;;;;;;;;18.60;57.41;100596.86;2315737;75;51562;-74
2023/03/27 11:41:29;;;;;;;;;;;;;;;18.64;57.06;100597.31;2315815;75;50429;-75
2023/03/27 11:44:32;;;;;;;;;;;;;;;18.71;56.83;100592.87;2257745;77;51253;-75
2023/03/27 11:47:38;;;;;;;;;;;;;;;18.72;56.81;100595.35;2291015;76;52601;-75
2023/03/27 11:50:54;;;;;;;;;;;;;;;18.76;56.66;100606.59;2341835;75;51628;-74
2023/03/27 11:53:59;;;;;;;;;;;;;;;18.76;56.73;100593.19;2313425;77;50988;-74
2023/03/27 11:57:02;;;;;;;;;;;;;;;18.78;56.90;100609.92;2314057;75;51797;-75
2023/03/27 12:00:05;;;;;;;;;;;;;;;18.77;56.90;100604.73;2309090;75;52617;-73
2023/03/27 12:03:14;;;;;;;;;;;;;;;18.75;56.75;100594.19;2352937;75;51532;-77
2023/03/27 12:06:30;;;;;;;;;;;;;;;18.73;56.85;100600.23;2352302;75;51456;-74
2023/03/27 12:09:33;;;;;;;;;;;;;;;18.72;57.01;100596.70;2283622;77;49736;-74
2023/03/27 12:12:49;;;;;;;;;;;;;;;18.70;57.08;100600.09;2314206;75;50454;-75
2023/03/27 12:16:10;;;;;;;;;;;;;;;18.74;56.90;100601.88;2306992;77;50798;-74
2023/03/27 12:19:14;;;;;;;;;;;;;;;18.74;56.76;100608.59;2321811;75;51509;-73
2023/03/27 12:22:32;;;;;;;;;;;;;;;18.75;56.83;100615.63;2351484;75;51510;-72
2023/03/27 12:25:47;;;;;;;;;;;;;;;18.74;56.84;100607.76;2284338;77;51084;-74
2023/03/27 12:29:06;;;;;;;;;;;;;;;18.72;56.74;100615.97;2323630;75;51482;-75
2023/03/27 12:32:15;;;;;;;;;;;;;;;18.72;56.97;100618.66;2354093;75;52322;-75
2023/03/27 12:35:18;;;;;;;;;;;;;;;18.72;56.95;100621.33;2321658;74;50341;-74
2023/03/27 12:38:21;;;;;;;;;;;;;;;18.71;56.91;100625.05;2316550;75;51473;-74
2023/03/27 12:41:30;;;;;;;;;;;;;;;18.69;56.93;100614.49;2353757;75;50688;-72
2023/03/27 12:44:31;;;;;;;;;;;;;;;18.70;56.93;100622.88;2332064;75;50397;-73
2023/03/27 12:47:33;;;;;;;;;;;;;;;18.71;56.87;100625.05;2330937;74;50620;-74
2023/03/27 12:50:36;;;;;;;;;;;;;;;18.74;56.73;100613.95;2260589;77;51636;-73
2023/03/27 12:53:40;;;;;;;;;;;;;;;18.78;56.66;100619.30;2314383;75;51485;-72
2023/03/27 12:56:41;;;;;;;;;;;;;;;18.82;56.53;100624.60;2313996;77;50396;-74
2023/03/27 12:59:48;;;;;;;;;;;;;;;18.85;56.42;100616.18;2320419;75;51497;-73
2023/03/27 13:02:57;;;;;;;;;;;;;;;18.86;56.42;100600.95;2305216;75;51293;-74
2023/03/27 13:06:13;;;;;;;;;;;;;;;18.88;56.63;100613.16;2330363;75;51633;-75
2023/03/27 13:09:16;;;;;;;;;;;;;;;18.90;56.66;100616.97;2318528;75;50777;-73
2023/03/27 13:12:32;;;;;;;;;;;;;;;18.85;56.59;100618.86;2346127;76;50679;-73
2023/03/27 13:15:44;;;;;;;;;;;;;;;18.81;56.35;100627.48;2299604;75;51225;-73
2023/03/27 13:19:04;;;;;;;;;;;;;;;18.76;56.56;100644.11;2330645;75;51502;-73
2023/03/27 13:22:14;;;;;;;;;;;;;;;18.76;56.45;100652.16;2336986;75;50041;-73
2023/03/27 13:25:17;;;;;;;;;;;;;;;18.75;56.25;100647.80;2317591;76;51301;-74
2023/03/27 13:28:29;;;;;;;;;;;;;;;18.75;56.20;100651.81;2307183;75;52421;-73
2023/03/27 13:31:48;;;;;;;;;;;;;;;18.76;56.17;100654.84;2346249;74;50820;-74
2023/03/27 13:34:54;;;;;;;;;;;;;;;18.81;56.83;100656.46;2351070;75;52461;-74
2023/03/27 13:38:00;;;;;;;;;;;;;;;18.83;56.57;100665.16;2334371;74;50669;-73
2023/03/27 13:41:20;;;;;;;;;;;;;;;18.83;56.52;100671.00;2321153;75;51281;-72
2023/03/27 13:44:23;;;;;;;;;;;;;;;18.84;56.79;100683.41;2342269;75;50767;-76
2023/03/27 13:47:38;;;;;;;;;;;;;;;18.83;56.74;100685.27;2278005;75;51741;-76
2023/03/27 13:50:58;;;;;;;;;;;;;;;18.83;56.79;100681.24;2322697;76;50358;-74
2023/03/27 13:54:04;;;;;;;;;;;;;;;18.84;56.89;100676.19;2281145;77;51727;-73
2023/03/27 13:57:10;;;;;;;;;;;;;;;18.85;56.72;100677.84;2312395;77;51454;-73
2023/03/27 14:00:19;;;;;;;;;;;;;;;18.80;56.50;100672.20;2331645;75;50794;-72
2023/03/27 14:03:43;;;;;;;;;;;;;;;18.76;56.51;100676.28;2342949;75;50277;-73
2023/03/27 14:07:02;;;;;;;;;;;;;;;18.72;56.59;100681.64;2320077;75;22210;-72
2023/03/27 14:10:07;;;;;;;;;;;;;;;18.68;56.55;100684.38;2300231;75;51542;-72
2023/03/27 14:13:13;;;;;;;;;;;;;;;18.66;56.62;100698.47;2324185;76;50289;-72
2023/03/27 14:16:22;;;;;;;;;;;;;;;18.63;56.61;100687.60;2332829;75;52378;-71
2023/03/27 14:19:26;;;;;;;;;;;;;;;18.63;56.66;100694.81;2312742;75;52398;-72
2023/03/27 14:22:29;;;;;;;;;;;;;;;18.66;56.57;100694.45;2321345;75;50659;-72
2023/03/27 14:25:35;;;;;;;;;;;;;;;18.66;56.41;100698.47;2318441;74;50661;-72
2023/03/27 14:28:48;;;;;;;;;;;;;;;18.66;56.21;100694.45;2313112;77;51440;-72
2023/03/27 14:31:49;;;;;;;;;;;;;;;18.75;55.92;100694.70;2324115;75;52443;-72
2023/03/27 14:35:01;;;;;;;;;;;;;;;18.93;55.41;100682.28;2332555;74;50628;-71
2023/03/27 14:38:00;;;;;;;;;;;;;;;19.00;55.24;100690.44;2283730;76;22506;-72
2023/03/27 14:41:06;;;;;;;;;;;;;;;18.97;55.23;100690.30;2316485;75;50390;-71
2023/03/27 14:44:08;;;;;;;;;;;;;;;18.99;55.21;100700.85;2318540;75;51472;-70
2023/03/27 14:47:11;;;;;;;;;;;;;;;18.99;55.22;100696.83;2338401;75;51444;-71
2023/03/27 14:50:13;;;;;;;;;;;;;;;19.01;55.13;100694.77;2324072;76;50248;-71
2023/03/27 14:53:16;;;;;;;;;;;;;;;19.02;55.05;100697.80;2320720;75;51503;-70
2023/03/27 14:56:19;;;;;;;;;;;;;;;18.97;55.12;100697.52;2262930;77;51716;-71
2023/03/27 14:59:22;;;;;;;;;;;;;;;18.93;55.26;100688.98;2311398;77;51522;-71
2023/03/27 15:02:27;;;;;;;;;;;;;;;18.88;55.27;100692.25;2322323;75;51554;-73
2023/03/27 15:05:28;;;;;;;;;;;;;;;18.93;55.23;100698.37;2334653;74;22527;-72
2023/03/27 15:08:33;;;;;;;;;;;;;;;18.95;55.19;100700.88;2293210;76;51161;-72
2023/03/27 15:11:39;;;;;;;;;;;;;;;18.90;55.29;100706.27;2309778;75;50716;-73
2023/03/27 15:14:41;;;;;;;;;;;;;;;18.83;55.47;100705.37;2326294;75;50231;-72
2023/03/27 15:17:43;;;;;;;;;;;;;;;18.77;55.61;100707.42;2301194;76;50256;-72
2023/03/27 15:20:45;;;;;;;;;;;;;;;18.73;55.72;100704.77;2312321;75;53047;-71
2023/03/27 15:23:48;;;;;;;;;;;;;;;18.72;55.79;100698.55;2334988;74;51467;-73
2023/03/27 15:26:50;;;;;;;;;;;;;;;18.67;55.92;100699.61;2333002;75;51945;-71
2023/03/27 15:29:59;;;;;;;;;;;;;;;18.64;56.00;100693.79;2322873;74;50758;-71
2023/03/27 15:33:03;;;;;;;;;;;;;;;18.66;55.94;100692.59;2284792;76;52324;-72
2023/03/27 15:36:05;;;;;;;;;;;;;;;18.75;55.66;100696.04;2340994;74;50341;-73
2023/03/27 15:39:07;;;;;;;;;;;;;;;18.82;55.51;100695.64;2324228;76;51488;-71
2023/03/27 15:42:11;;;;;;;;;;;;;;;18.81;55.48;100699.35;2317213;75;51459;-71
2023/03/27 15:45:15;;;;;;;;;;;;;;;18.81;55.47;100694.50;2313749;75;52038;-72
2023/03/27 15:48:18;;;;;;;;;;;;;;;18.76;55.56;100692.36;2296628;75;50844;-71
2023/03/27 15:51:21;;;;;;;;;;;;;;;18.73;55.63;100696.73;2314406;75;50461;-71